createdAt,value
2018-07-30T00:01:52.206Z,2.52
2018-07-30T00:06:55.750Z,2.62
2018-07-30T00:11:59.304Z,2.30
2018-07-30T00:17:03.170Z,2.40
2018-07-30T00:22:06.800Z,2.60
2018-07-30T00:27:10.253Z,2.80
2018-07-30T00:32:13.827Z,2.40
2018-07-30T00:37:18.501Z,2.50
2018-07-30T00:42:22.095Z,2.10
2018-07-30T00:47:26.948Z,2.60
2018-07-30T00:52:30.936Z,2.50
2018-07-30T00:57:35.024Z,2.47
2018-07-30T01:02:38.561Z,2.17
2018-07-30T01:07:42.175Z,2.35
2018-07-30T01:12:45.664Z,2.95
2018-07-30T01:17:49.450Z,2.90
2018-07-30T01:22:53.390Z,2.42
2018-07-30T01:27:57.112Z,2.45
2018-07-30T01:33:00.580Z,3.12
2018-07-30T01:38:04.086Z,2.58
2018-07-30T01:43:08.281Z,2.17
2018-07-30T01:48:11.873Z,2.45
2018-07-30T01:53:15.691Z,2.72
2018-07-30T01:58:19.174Z,2.58
2018-07-30T02:03:22.650Z,2.50
2018-07-30T02:08:26.341Z,2.83
2018-07-30T02:13:30.018Z,2.75
2018-07-30T02:18:33.637Z,2.75
2018-07-30T02:23:37.305Z,2.37
2018-07-30T02:28:40.838Z,2.87
2018-07-30T02:33:44.281Z,2.70
2018-07-30T02:38:47.833Z,2.30
2018-07-30T02:43:51.814Z,2.67
2018-07-30T02:48:55.500Z,2.52
2018-07-30T02:53:59.746Z,2.70
2018-07-30T02:59:03.361Z,2.60
2018-07-30T03:04:06.858Z,2.62
2018-07-30T03:09:11.825Z,2.42
2018-07-30T03:14:15.331Z,2.62
2018-07-30T03:19:18.806Z,2.98
2018-07-30T03:24:22.585Z,2.65
2018-07-30T03:29:26.038Z,2.62
2018-07-30T03:34:29.612Z,2.72
2018-07-30T03:39:33.297Z,2.65
2018-07-30T03:44:36.914Z,2.75
2018-07-30T03:49:40.833Z,2.85
2018-07-30T03:54:44.352Z,2.67
2018-07-30T03:59:47.805Z,2.47
2018-07-30T04:04:51.523Z,2.83
2018-07-30T04:09:55.505Z,2.92
2018-07-30T04:14:59.170Z,2.75
2018-07-30T04:20:02.932Z,2.50
2018-07-30T04:25:07.109Z,2.70
2018-07-30T04:30:10.666Z,2.50
2018-07-30T04:35:14.348Z,2.70
2018-07-30T04:40:17.969Z,3.07
2018-07-30T04:45:21.419Z,2.52
2018-07-30T04:50:24.919Z,3.03
2018-07-30T04:55:28.516Z,2.60
2018-07-30T05:00:32.158Z,2.50
2018-07-30T05:05:37.152Z,2.42
2018-07-30T05:10:42.196Z,2.60
2018-07-30T05:15:45.898Z,3.20
2018-07-30T05:20:49.902Z,2.37
2018-07-30T05:25:53.465Z,2.77
2018-07-30T05:30:57.118Z,2.62
2018-07-30T05:36:02.168Z,2.70
2018-07-30T05:41:05.773Z,2.87
2018-07-30T05:46:09.508Z,2.77
2018-07-30T05:51:13.046Z,2.50
2018-07-30T05:56:16.627Z,2.50
2018-07-30T06:01:20.198Z,2.58
2018-07-30T06:06:23.882Z,2.62
2018-07-30T06:11:27.511Z,2.60
2018-07-30T06:16:31.062Z,2.25
2018-07-30T06:21:34.822Z,2.60
2018-07-30T06:26:38.314Z,2.52
2018-07-30T06:31:41.786Z,2.17
2018-07-30T06:36:45.281Z,2.55
2018-07-30T06:41:49.056Z,2.62
2018-07-30T06:46:52.678Z,2.00
2018-07-30T06:51:56.186Z,2.70
2018-07-30T06:56:59.677Z,2.37
2018-07-30T07:02:03.299Z,2.25
2018-07-30T07:07:07.017Z,2.33
2018-07-30T07:12:10.509Z,2.42
2018-07-30T07:17:13.973Z,2.60
2018-07-30T07:22:17.432Z,2.33
2018-07-30T07:27:21.127Z,2.22
2018-07-30T07:32:24.734Z,2.37
2018-07-30T07:37:28.999Z,2.30
2018-07-30T07:42:32.610Z,2.50
2018-07-30T07:47:36.530Z,1.95
2018-07-30T07:52:40.341Z,2.33
2018-07-30T07:57:43.998Z,2.35
2018-07-30T08:02:47.890Z,2.22
2018-07-30T08:07:51.597Z,2.55
2018-07-30T08:12:55.345Z,2.37
2018-07-30T08:17:59.139Z,2.58
2018-07-30T08:23:02.650Z,2.40
2018-07-30T08:28:06.491Z,2.33
2018-07-30T08:33:10.172Z,2.17
2018-07-30T08:38:13.772Z,2.45
2018-07-30T08:43:17.362Z,2.30
2018-07-30T08:48:20.857Z,1.98
2018-07-30T08:53:24.781Z,2.47
2018-07-30T08:58:28.524Z,2.17
2018-07-30T09:03:32.238Z,2.50
2018-07-30T09:08:35.801Z,2.58
2018-07-30T09:13:39.586Z,2.67
2018-07-30T09:18:43.288Z,2.52
2018-07-30T09:23:46.869Z,3.08
2018-07-30T09:28:50.535Z,2.50
2018-07-30T09:33:54.317Z,2.12
2018-07-30T09:38:57.777Z,3.08
2018-07-30T09:44:01.277Z,2.60
2018-07-30T09:49:05.111Z,2.80
2018-07-30T09:54:08.811Z,2.40
2018-07-30T09:59:12.282Z,2.50
2018-07-30T10:04:16.065Z,2.23
2018-07-30T10:09:19.657Z,2.80
2018-07-30T10:14:23.485Z,2.25
2018-07-30T10:19:27.084Z,2.47
2018-07-30T10:24:30.829Z,2.75
2018-07-30T10:29:34.305Z,2.17
2018-07-30T10:34:38.408Z,2.42
2018-07-30T10:39:42.211Z,2.65
2018-07-30T10:44:45.749Z,2.37
2018-07-30T10:49:49.231Z,2.60
2018-07-30T10:54:52.856Z,2.50
2018-07-30T10:59:56.421Z,2.27
2018-07-30T11:05:00.014Z,2.40
2018-07-30T11:10:04.222Z,2.37
2018-07-30T11:15:08.083Z,2.33
2018-07-30T11:20:11.538Z,2.70
2018-07-30T11:25:15.303Z,2.60
2018-07-30T11:30:19.202Z,2.27
2018-07-30T11:35:22.893Z,2.60
2018-07-30T11:40:26.530Z,2.65
2018-07-30T11:45:30.045Z,2.75
2018-07-30T11:50:33.565Z,2.72
2018-07-30T11:55:37.172Z,2.40
2018-07-30T12:00:41.266Z,3.00
2018-07-30T12:05:45.018Z,2.90
2018-07-30T12:10:48.510Z,2.87
2018-07-30T12:15:51.988Z,2.77
2018-07-30T12:20:55.690Z,2.70
2018-07-30T12:25:59.345Z,2.87
2018-07-30T12:31:02.953Z,2.80
2018-07-30T12:36:06.689Z,3.08
2018-07-30T12:41:10.237Z,3.00
2018-07-30T12:46:13.966Z,3.17
2018-07-30T12:51:17.449Z,2.75
2018-07-30T12:56:20.961Z,2.80
2018-07-30T13:01:24.408Z,2.60
2018-07-30T13:06:27.913Z,3.02
2018-07-30T13:11:31.431Z,2.50
2018-07-30T13:16:35.205Z,3.55
2018-07-30T13:21:38.708Z,5.95
2018-07-30T13:26:42.297Z,7.80
2018-07-30T13:31:45.785Z,7.37
2018-07-30T13:36:49.389Z,6.95
2018-07-30T13:41:53.252Z,7.65
2018-07-30T13:46:56.889Z,6.47
2018-07-30T13:52:00.353Z,6.03
2018-07-30T13:57:04.126Z,6.45
2018-07-30T14:02:07.599Z,5.72
2018-07-30T14:07:11.325Z,5.10
2018-07-30T14:12:14.843Z,5.08
2018-07-30T14:17:18.786Z,4.78
2018-07-30T14:22:23.148Z,4.85
2018-07-30T14:27:27.845Z,3.62
2018-07-30T14:32:31.595Z,3.90
2018-07-30T14:37:35.137Z,3.60
2018-07-30T14:42:38.718Z,3.35
2018-07-30T14:47:42.647Z,3.92
2018-07-30T14:52:46.489Z,3.40
2018-07-30T14:57:50.026Z,3.33
2018-07-30T15:02:53.506Z,3.60
2018-07-30T15:07:57.401Z,3.17
2018-07-30T15:13:01.653Z,3.30
2018-07-30T15:18:05.658Z,2.80
2018-07-30T15:23:09.415Z,3.67
2018-07-30T15:28:13.448Z,2.75
2018-07-30T15:33:16.972Z,3.33
2018-07-30T15:38:20.541Z,2.92
2018-07-30T15:43:24.072Z,2.90
2018-07-30T15:48:27.701Z,3.00
2018-07-30T15:53:31.438Z,2.55
2018-07-30T15:58:35.050Z,2.55
2018-07-30T16:03:38.666Z,2.40
2018-07-30T16:08:42.173Z,2.70
2018-07-30T16:13:45.625Z,3.65
2018-07-30T16:18:49.102Z,5.58
2018-07-30T16:23:52.572Z,5.55
2018-07-30T16:28:56.402Z,6.55
2018-07-30T16:34:00.267Z,5.78
2018-07-30T16:39:05.490Z,5.55
2018-07-30T16:44:09.682Z,4.87
2018-07-30T16:49:13.555Z,4.58
2018-07-30T16:54:17.605Z,5.10
2018-07-30T16:59:21.740Z,3.87
2018-07-30T17:04:25.554Z,4.25
2018-07-30T17:09:29.619Z,3.80
2018-07-30T17:14:33.510Z,3.83
2018-07-30T17:19:37.149Z,3.90
2018-07-30T17:24:41.254Z,3.35
2018-07-30T17:29:45.020Z,3.33
2018-07-30T17:34:49.113Z,3.65
2018-07-30T17:39:53.594Z,3.83
2018-07-30T17:44:57.341Z,3.60
2018-07-30T17:50:01.079Z,3.33
2018-07-30T17:55:05.082Z,3.20
2018-07-30T18:00:10.006Z,3.47
2018-07-30T18:05:18.084Z,3.73
2018-07-30T18:10:25.569Z,2.95
2018-07-30T18:15:29.593Z,2.77
2018-07-30T18:20:34.134Z,3.27
2018-07-30T18:25:38.196Z,3.50
2018-07-30T18:30:42.417Z,2.90
2018-07-30T18:35:46.556Z,3.37
2018-07-30T18:40:50.608Z,3.30
2018-07-30T18:45:54.405Z,3.58
2018-07-30T18:50:58.291Z,3.52
2018-07-30T18:56:01.945Z,3.02
2018-07-30T19:01:05.662Z,3.30
2018-07-30T19:06:09.580Z,3.15
2018-07-30T19:11:13.076Z,3.45
2018-07-30T19:16:16.757Z,2.87
2018-07-30T19:21:20.542Z,3.17
2018-07-30T19:26:24.197Z,3.60
2018-07-30T19:31:27.904Z,3.00
2018-07-30T19:36:31.418Z,3.08
2018-07-30T19:41:35.127Z,3.17
2018-07-30T19:46:38.968Z,3.45
2018-07-30T19:51:42.824Z,3.33
2018-07-30T19:56:46.694Z,3.83
2018-07-30T20:01:50.545Z,3.35
2018-07-30T20:06:54.563Z,3.55
2018-07-30T20:11:58.801Z,3.60
2018-07-30T20:17:03.886Z,3.12
2018-07-30T20:22:07.446Z,4.22
2018-07-30T20:27:11.533Z,3.55
2018-07-30T20:32:15.793Z,3.08
2018-07-30T20:37:20.246Z,3.70
2018-07-30T20:42:24.783Z,3.60
2018-07-30T20:47:28.603Z,2.95
2018-07-30T20:52:32.868Z,3.62
2018-07-30T20:57:37.206Z,3.67
2018-07-30T21:02:40.765Z,3.45
2018-07-30T21:07:44.837Z,3.77
2018-07-30T21:12:48.821Z,3.58
2018-07-30T21:17:52.538Z,3.95
2018-07-30T21:22:56.263Z,3.70
2018-07-30T21:28:00.222Z,3.60
2018-07-30T21:33:03.890Z,3.12
2018-07-30T21:38:07.812Z,3.00
2018-07-30T21:43:11.309Z,3.65
2018-07-30T21:48:14.789Z,3.95
2018-07-30T21:53:18.509Z,3.60
2018-07-30T21:58:22.033Z,3.52
2018-07-30T22:03:26.149Z,3.40
2018-07-30T22:08:30.229Z,4.00
2018-07-30T22:13:33.697Z,3.40
2018-07-30T22:18:37.416Z,3.72
2018-07-30T22:23:40.962Z,3.87
2018-07-30T22:28:44.744Z,3.62
2018-07-30T22:33:48.675Z,3.22
2018-07-30T22:38:52.370Z,3.80
2018-07-30T22:43:56.115Z,3.52
2018-07-30T22:48:59.853Z,3.47
2018-07-30T22:54:03.455Z,3.72
2018-07-30T22:59:07.685Z,3.83
2018-07-30T23:04:11.377Z,3.35
2018-07-30T23:09:14.942Z,3.20
2018-07-30T23:14:18.586Z,3.45
2018-07-30T23:19:22.234Z,3.80
2018-07-30T23:24:25.741Z,3.60
2018-07-30T23:29:29.386Z,3.70
2018-07-30T23:34:33.141Z,3.12
2018-07-30T23:39:36.657Z,3.10
2018-07-30T23:44:40.121Z,3.77
2018-07-30T23:49:43.810Z,3.33
2018-07-30T23:54:47.270Z,3.42
2018-07-30T23:59:50.844Z,3.92
